sensor_id;sensor_type;location;lat;lon;timestamp;temperature;humidity
23671;DHT22;12012;51.998;7.614;2023-04-03T00:01:12;4.50;1.00
23671;DHT22;12012;51.998;7.614;2023-04-03T00:03:38;4.40;1.00
23671;DHT22;12012;51.998;7.614;2023-04-03T00:06:04;4.40;1.00
23671;DHT22;12012;51.998;7.614;2023-04-03T00:08:32;4.40;1.00
23671;DHT22;12012;51.998;7.614;2023-04-03T00:10:58;4.30;1.00
23671;DHT22;12012;51.998;7.614;2023-04-03T00:13:24;4.30;1.00
23671;DHT22;12012;51.998;7.614;2023-04-03T00:15:50;4.30;1.00
23671;DHT22;12012;51.998;7.614;2023-04-03T00:18:16;4.30;1.00
23671;DHT22;12012;51.998;7.614;2023-04-03T00:20:42;4.20;1.00
23671;DHT22;12012;51.998;7.614;2023-04-03T00:23:07;4.20;1.00
23671;DHT22;12012;51.998;7.614;2023-04-03T00:25:33;4.20;1.00
23671;DHT22;12012;51.998;7.614;2023-04-03T00:27:59;4.20;1.00
23671;DHT22;12012;51.998;7.614;2023-04-03T00:30:25;4.10;1.00
23671;DHT22;12012;51.998;7.614;2023-04-03T00:32:51;4.10;1.00
23671;DHT22;12012;51.998;7.614;2023-04-03T00:35:18;4.10;1.00
23671;DHT22;12012;51.998;7.614;2023-04-03T00:37:45;4.00;1.00
23671;DHT22;12012;51.998;7.614;2023-04-03T00:40:12;4.00;1.00
23671;DHT22;12012;51.998;7.614;2023-04-03T00:42:41;3.90;1.00
23671;DHT22;12012;51.998;7.614;2023-04-03T00:48:11;3.90;1.00
23671;DHT22;12012;51.998;7.614;2023-04-03T00:50:41;3.90;1.00
23671;DHT22;12012;51.998;7.614;2023-04-03T00:53:12;3.80;1.00
23671;DHT22;12012;51.998;7.614;2023-04-03T00:55:39;3.80;1.00
23671;DHT22;12012;51.998;7.614;2023-04-03T00:58:06;3.80;1.00
23671;DHT22;12012;51.998;7.614;2023-04-03T01:00:33;3.80;1.00
23671;DHT22;12012;51.998;7.614;2023-04-03T01:02:59;3.70;1.00
23671;DHT22;12012;51.998;7.614;2023-04-03T01:05:25;3.70;1.00
23671;DHT22;12012;51.998;7.614;2023-04-03T01:07:51;3.60;1.00
23671;DHT22;12012;51.998;7.614;2023-04-03T01:10:18;3.60;1.00
23671;DHT22;12012;51.998;7.614;2023-04-03T01:12:48;3.60;1.00
23671;DHT22;12012;51.998;7.614;2023-04-03T01:15:26;3.60;1.00
23671;DHT22;12012;51.998;7.614;2023-04-03T01:17:56;3.50;1.00
23671;DHT22;12012;51.998;7.614;2023-04-03T01:25:38;3.40;1.00
23671;DHT22;12012;51.998;7.614;2023-04-03T01:28:06;3.40;1.00
23671;DHT22;12012;51.998;7.614;2023-04-03T01:30:39;3.40;1.00
23671;DHT22;12012;51.998;7.614;2023-04-03T01:33:06;3.30;1.00
23671;DHT22;12012;51.998;7.614;2023-04-03T01:35:32;3.30;1.00
23671;DHT22;12012;51.998;7.614;2023-04-03T01:37:57;3.30;1.00
23671;DHT22;12012;51.998;7.614;2023-04-03T01:40:23;3.20;1.00
23671;DHT22;12012;51.998;7.614;2023-04-03T01:42:49;3.20;1.00
23671;DHT22;12012;51.998;7.614;2023-04-03T01:45:14;3.20;1.00
23671;DHT22;12012;51.998;7.614;2023-04-03T01:47:40;3.20;1.00
23671;DHT22;12012;51.998;7.614;2023-04-03T01:50:06;3.10;1.00
23671;DHT22;12012;51.998;7.614;2023-04-03T01:52:31;3.10;12.30
23671;DHT22;12012;51.998;7.614;2023-04-03T01:54:57;3.10;24.20
23671;DHT22;12012;51.998;7.614;2023-04-03T01:57:22;3.10;27.50
23671;DHT22;12012;51.998;7.614;2023-04-03T01:59:48;3.00;32.50
23671;DHT22;12012;51.998;7.614;2023-04-03T02:02:14;3.00;43.10
23671;DHT22;12012;51.998;7.614;2023-04-03T02:04:40;2.90;70.10
23671;DHT22;12012;51.998;7.614;2023-04-03T02:07:06;2.90;90.20
23671;DHT22;12012;51.998;7.614;2023-04-03T02:09:32;2.90;97.00
23671;DHT22;12012;51.998;7.614;2023-04-03T02:11:57;2.90;99.90
23671;DHT22;12012;51.998;7.614;2023-04-03T02:14:23;2.80;99.90
23671;DHT22;12012;51.998;7.614;2023-04-03T02:16:49;2.80;99.90
23671;DHT22;12012;51.998;7.614;2023-04-03T02:19:15;2.70;99.90
23671;DHT22;12012;51.998;7.614;2023-04-03T02:21:40;2.70;99.90
23671;DHT22;12012;51.998;7.614;2023-04-03T02:24:06;2.70;99.90
23671;DHT22;12012;51.998;7.614;2023-04-03T02:26:32;2.60;99.90
23671;DHT22;12012;51.998;7.614;2023-04-03T02:28:57;2.70;99.90
23671;DHT22;12012;51.998;7.614;2023-04-03T02:31:23;2.60;99.90
23671;DHT22;12012;51.998;7.614;2023-04-03T02:33:49;2.60;99.90
23671;DHT22;12012;51.998;7.614;2023-04-03T02:36:15;2.60;99.90
23671;DHT22;12012;51.998;7.614;2023-04-03T02:38:41;2.50;99.90
23671;DHT22;12012;51.998;7.614;2023-04-03T02:41:09;2.50;99.90
23671;DHT22;12012;51.998;7.614;2023-04-03T02:43:36;2.50;99.90
23671;DHT22;12012;51.998;7.614;2023-04-03T02:46:02;2.40;99.90
23671;DHT22;12012;51.998;7.614;2023-04-03T02:48:27;2.40;99.90
23671;DHT22;12012;51.998;7.614;2023-04-03T02:50:53;2.40;99.90
23671;DHT22;12012;51.998;7.614;2023-04-03T02:53:19;2.40;99.90
23671;DHT22;12012;51.998;7.614;2023-04-03T02:55:45;2.40;99.90
23671;DHT22;12012;51.998;7.614;2023-04-03T02:58:11;2.40;99.90
23671;DHT22;12012;51.998;7.614;2023-04-03T03:00:37;2.30;99.90
23671;DHT22;12012;51.998;7.614;2023-04-03T03:03:02;2.30;99.90
23671;DHT22;12012;51.998;7.614;2023-04-03T03:05:28;2.30;99.90
23671;DHT22;12012;51.998;7.614;2023-04-03T03:07:54;2.30;99.90
23671;DHT22;12012;51.998;7.614;2023-04-03T03:10:20;2.20;99.90
23671;DHT22;12012;51.998;7.614;2023-04-03T03:12:46;2.20;99.90
23671;DHT22;12012;51.998;7.614;2023-04-03T03:15:12;2.20;99.90
23671;DHT22;12012;51.998;7.614;2023-04-03T03:17:38;2.10;99.90
23671;DHT22;12012;51.998;7.614;2023-04-03T03:20:06;2.10;99.90
23671;DHT22;12012;51.998;7.614;2023-04-03T03:22:33;2.10;99.90
23671;DHT22;12012;51.998;7.614;2023-04-03T03:24:59;2.10;99.90
23671;DHT22;12012;51.998;7.614;2023-04-03T03:27:24;2.00;99.90
23671;DHT22;12012;51.998;7.614;2023-04-03T03:29:50;2.00;99.90
23671;DHT22;12012;51.998;7.614;2023-04-03T03:32:15;2.00;99.90
23671;DHT22;12012;51.998;7.614;2023-04-03T03:34:41;2.00;99.90
23671;DHT22;12012;51.998;7.614;2023-04-03T03:37:07;1.90;99.90
23671;DHT22;12012;51.998;7.614;2023-04-03T03:39:32;1.90;99.90
23671;DHT22;12012;51.998;7.614;2023-04-03T03:41:58;1.90;99.90
23671;DHT22;12012;51.998;7.614;2023-04-03T03:44:23;1.90;99.90
23671;DHT22;12012;51.998;7.614;2023-04-03T03:46:49;1.80;99.90
23671;DHT22;12012;51.998;7.614;2023-04-03T03:49:15;1.80;99.90
23671;DHT22;12012;51.998;7.614;2023-04-03T03:51:40;1.80;99.90
23671;DHT22;12012;51.998;7.614;2023-04-03T03:54:06;1.80;99.90
23671;DHT22;12012;51.998;7.614;2023-04-03T03:56:33;1.80;99.90
23671;DHT22;12012;51.998;7.614;2023-04-03T03:58:59;1.70;99.90
23671;DHT22;12012;51.998;7.614;2023-04-03T04:01:24;1.70;99.90
23671;DHT22;12012;51.998;7.614;2023-04-03T04:03:50;1.70;99.90
23671;DHT22;12012;51.998;7.614;2023-04-03T04:06:16;1.70;99.90
23671;DHT22;12012;51.998;7.614;2023-04-03T04:08:42;1.60;99.90
23671;DHT22;12012;51.998;7.614;2023-04-03T04:11:09;1.60;99.90
23671;DHT22;12012;51.998;7.614;2023-04-03T04:13:35;1.60;99.90
23671;DHT22;12012;51.998;7.614;2023-04-03T04:16:00;1.60;99.90
23671;DHT22;12012;51.998;7.614;2023-04-03T04:18:26;1.50;1.00
23671;DHT22;12012;51.998;7.614;2023-04-03T04:20:52;1.50;1.00
23671;DHT22;12012;51.998;7.614;2023-04-03T04:23:18;1.50;1.00
23671;DHT22;12012;51.998;7.614;2023-04-03T04:25:45;1.50;1.00
23671;DHT22;12012;51.998;7.614;2023-04-03T04:28:12;1.50;1.00
23671;DHT22;12012;51.998;7.614;2023-04-03T04:30:38;1.40;1.00
23671;DHT22;12012;51.998;7.614;2023-04-03T04:33:03;1.40;1.00
23671;DHT22;12012;51.998;7.614;2023-04-03T04:35:29;1.40;1.00
23671;DHT22;12012;51.998;7.614;2023-04-03T04:37:54;1.40;1.00
23671;DHT22;12012;51.998;7.614;2023-04-03T04:40:20;1.40;1.00
23671;DHT22;12012;51.998;7.614;2023-04-03T04:42:46;1.30;1.00
23671;DHT22;12012;51.998;7.614;2023-04-03T04:45:12;1.30;1.00
23671;DHT22;12012;51.998;7.614;2023-04-03T04:47:37;1.30;1.00
23671;DHT22;12012;51.998;7.614;2023-04-03T04:50:03;1.30;1.00
23671;DHT22;12012;51.998;7.614;2023-04-03T04:52:29;1.20;1.00
23671;DHT22;12012;51.998;7.614;2023-04-03T04:54:54;1.20;1.00
23671;DHT22;12012;51.998;7.614;2023-04-03T04:57:20;1.20;1.00
23671;DHT22;12012;51.998;7.614;2023-04-03T04:59:46;1.20;1.00
23671;DHT22;12012;51.998;7.614;2023-04-03T05:02:11;1.10;9.50
23671;DHT22;12012;51.998;7.614;2023-04-03T05:04:37;1.10;26.60
23671;DHT22;12012;51.998;7.614;2023-04-03T05:07:02;1.10;86.40
23671;DHT22;12012;51.998;7.614;2023-04-03T05:09:28;1.10;99.90
23671;DHT22;12012;51.998;7.614;2023-04-03T05:11:54;1.00;99.90
23671;DHT22;12012;51.998;7.614;2023-04-03T05:14:19;1.00;99.90
23671;DHT22;12012;51.998;7.614;2023-04-03T05:16:45;1.00;99.90
23671;DHT22;12012;51.998;7.614;2023-04-03T05:19:11;1.00;99.90
23671;DHT22;12012;51.998;7.614;2023-04-03T05:21:36;1.00;99.90
23671;DHT22;12012;51.998;7.614;2023-04-03T05:24:02;1.00;99.90
23671;DHT22;12012;51.998;7.614;2023-04-03T05:26:29;1.00;99.90
23671;DHT22;12012;51.998;7.614;2023-04-03T05:28:55;1.00;99.90
23671;DHT22;12012;51.998;7.614;2023-04-03T05:31:21;0.90;99.90
23671;DHT22;12012;51.998;7.614;2023-04-03T05:33:47;1.00;99.90
23671;DHT22;12012;51.998;7.614;2023-04-03T05:36:13;1.00;99.90
23671;DHT22;12012;51.998;7.614;2023-04-03T05:38:39;1.00;1.00
23671;DHT22;12012;51.998;7.614;2023-04-03T05:41:04;1.10;1.00
23671;DHT22;12012;51.998;7.614;2023-04-03T05:43:30;1.10;1.00
23671;DHT22;12012;51.998;7.614;2023-04-03T05:45:56;1.20;1.00
23671;DHT22;12012;51.998;7.614;2023-04-03T05:48:21;1.20;99.90
23671;DHT22;12012;51.998;7.614;2023-04-03T05:50:47;1.20;99.90
23671;DHT22;12012;51.998;7.614;2023-04-03T05:53:21;1.20;99.90
23671;DHT22;12012;51.998;7.614;2023-04-03T05:55:47;1.30;99.90
23671;DHT22;12012;51.998;7.614;2023-04-03T05:58:13;1.30;99.90
23671;DHT22;12012;51.998;7.614;2023-04-03T06:00:38;1.30;99.90
23671;DHT22;12012;51.998;7.614;2023-04-03T06:03:04;1.30;99.90
23671;DHT22;12012;51.998;7.614;2023-04-03T06:05:30;1.40;99.90
23671;DHT22;12012;51.998;7.614;2023-04-03T06:07:56;1.40;99.90
23671;DHT22;12012;51.998;7.614;2023-04-03T06:10:22;1.50;99.90
23671;DHT22;12012;51.998;7.614;2023-04-03T06:12:48;1.60;99.90
23671;DHT22;12012;51.998;7.614;2023-04-03T06:15:13;1.60;99.90
23671;DHT22;12012;51.998;7.614;2023-04-03T06:17:40;1.70;99.90
23671;DHT22;12012;51.998;7.614;2023-04-03T06:20:06;1.80;99.90
23671;DHT22;12012;51.998;7.614;2023-04-03T06:22:31;1.80;99.90
23671;DHT22;12012;51.998;7.614;2023-04-03T06:24:57;1.90;99.90
23671;DHT22;12012;51.998;7.614;2023-04-03T06:27:23;2.00;99.90
23671;DHT22;12012;51.998;7.614;2023-04-03T06:29:48;2.10;99.90
23671;DHT22;12012;51.998;7.614;2023-04-03T06:32:15;2.40;99.90
23671;DHT22;12012;51.998;7.614;2023-04-03T06:34:41;2.60;99.90
23671;DHT22;12012;51.998;7.614;2023-04-03T06:37:14;2.80;1.00
23671;DHT22;12012;51.998;7.614;2023-04-03T06:39:40;2.90;99.90
23671;DHT22;12012;51.998;7.614;2023-04-03T06:42:05;2.90;12.50
23671;DHT22;12012;51.998;7.614;2023-04-03T06:44:31;2.90;1.00
23671;DHT22;12012;51.998;7.614;2023-04-03T06:46:59;3.00;1.00
23671;DHT22;12012;51.998;7.614;2023-04-03T06:49:24;3.00;99.90
23671;DHT22;12012;51.998;7.614;2023-04-03T06:51:50;3.10;99.90
23671;DHT22;12012;51.998;7.614;2023-04-03T06:54:16;3.10;99.90
23671;DHT22;12012;51.998;7.614;2023-04-03T06:56:42;3.20;99.90
23671;DHT22;12012;51.998;7.614;2023-04-03T06:59:09;3.30;99.90
23671;DHT22;12012;51.998;7.614;2023-04-03T07:01:35;3.40;99.90
23671;DHT22;12012;51.998;7.614;2023-04-03T07:04:01;3.50;99.90
23671;DHT22;12012;51.998;7.614;2023-04-03T07:06:26;3.60;99.90
23671;DHT22;12012;51.998;7.614;2023-04-03T07:08:52;3.70;99.90
23671;DHT22;12012;51.998;7.614;2023-04-03T07:11:18;3.80;99.90
23671;DHT22;12012;51.998;7.614;2023-04-03T07:13:44;3.90;8.60
23671;DHT22;12012;51.998;7.614;2023-04-03T07:16:09;4.10;1.00
23671;DHT22;12012;51.998;7.614;2023-04-03T07:18:35;4.20;1.00
23671;DHT22;12012;51.998;7.614;2023-04-03T07:21:02;4.30;1.00
23671;DHT22;12012;51.998;7.614;2023-04-03T07:23:28;4.50;1.00
23671;DHT22;12012;51.998;7.614;2023-04-03T07:25:53;4.80;1.00
23671;DHT22;12012;51.998;7.614;2023-04-03T07:28:20;5.00;1.00
23671;DHT22;12012;51.998;7.614;2023-04-03T07:30:51;5.30;99.90
23671;DHT22;12012;51.998;7.614;2023-04-03T07:33:19;5.50;99.90
23671;DHT22;12012;51.998;7.614;2023-04-03T07:35:45;5.80;99.90
23671;DHT22;12012;51.998;7.614;2023-04-03T07:38:11;6.20;99.90
23671;DHT22;12012;51.998;7.614;2023-04-03T07:40:37;6.40;99.90
23671;DHT22;12012;51.998;7.614;2023-04-03T07:43:04;6.70;99.90
23671;DHT22;12012;51.998;7.614;2023-04-03T07:45:31;6.90;99.90
23671;DHT22;12012;51.998;7.614;2023-04-03T07:47:56;7.10;99.90
23671;DHT22;12012;51.998;7.614;2023-04-03T07:50:22;7.40;99.90
23671;DHT22;12012;51.998;7.614;2023-04-03T07:52:48;7.60;99.90
23671;DHT22;12012;51.998;7.614;2023-04-03T07:55:16;7.80;99.90
23671;DHT22;12012;51.998;7.614;2023-04-03T07:57:42;8.00;99.90
23671;DHT22;12012;51.998;7.614;2023-04-03T08:00:08;8.30;99.90
23671;DHT22;12012;51.998;7.614;2023-04-03T08:02:35;8.40;99.90
23671;DHT22;12012;51.998;7.614;2023-04-03T08:05:01;8.60;99.90
23671;DHT22;12012;51.998;7.614;2023-04-03T08:07:26;8.60;99.90
23671;DHT22;12012;51.998;7.614;2023-04-03T08:09:52;8.70;99.90
23671;DHT22;12012;51.998;7.614;2023-04-03T08:12:18;8.70;97.90
23671;DHT22;12012;51.998;7.614;2023-04-03T08:14:43;8.90;94.40
23671;DHT22;12012;51.998;7.614;2023-04-03T08:17:09;9.10;89.80
23671;DHT22;12012;51.998;7.614;2023-04-03T08:19:38;9.30;77.30
23671;DHT22;12012;51.998;7.614;2023-04-03T08:22:03;9.40;65.40
23671;DHT22;12012;51.998;7.614;2023-04-03T08:24:33;9.50;53.90
23671;DHT22;12012;51.998;7.614;2023-04-03T08:26:59;9.70;47.30
23671;DHT22;12012;51.998;7.614;2023-04-03T08:29:25;9.80;39.60
23671;DHT22;12012;51.998;7.614;2023-04-03T08:31:51;9.90;31.10
23671;DHT22;12012;51.998;7.614;2023-04-03T08:34:17;9.90;24.20
23671;DHT22;12012;51.998;7.614;2023-04-03T08:36:43;10.00;20.10
23671;DHT22;12012;51.998;7.614;2023-04-03T08:39:09;10.00;15.10
23671;DHT22;12012;51.998;7.614;2023-04-03T08:41:36;10.20;12.30
23671;DHT22;12012;51.998;7.614;2023-04-03T08:46:54;10.40;4.50
23671;DHT22;12012;51.998;7.614;2023-04-03T08:51:54;10.60;1.00
23671;DHT22;12012;51.998;7.614;2023-04-03T08:54:27;10.70;1.00
23671;DHT22;12012;51.998;7.614;2023-04-03T08:56:55;10.70;1.00
23671;DHT22;12012;51.998;7.614;2023-04-03T08:59:29;10.80;1.00
23671;DHT22;12012;51.998;7.614;2023-04-03T09:01:57;10.90;1.00
23671;DHT22;12012;51.998;7.614;2023-04-03T09:04:26;11.00;1.00
23671;DHT22;12012;51.998;7.614;2023-04-03T09:06:56;11.00;1.00
23671;DHT22;12012;51.998;7.614;2023-04-03T09:09:40;11.10;1.00
23671;DHT22;12012;51.998;7.614;2023-04-03T09:15:20;11.10;1.00
23671;DHT22;12012;51.998;7.614;2023-04-03T09:20:43;11.10;1.00
23671;DHT22;12012;51.998;7.614;2023-04-03T09:23:49;11.10;1.00
23671;DHT22;12012;51.998;7.614;2023-04-03T09:26:38;11.20;1.00
23671;DHT22;12012;51.998;7.614;2023-04-03T09:29:07;11.30;1.00
23671;DHT22;12012;51.998;7.614;2023-04-03T09:31:38;11.40;1.00
23671;DHT22;12012;51.998;7.614;2023-04-03T09:34:19;11.60;1.00
23671;DHT22;12012;51.998;7.614;2023-04-03T09:36:50;11.90;1.00
23671;DHT22;12012;51.998;7.614;2023-04-03T09:39:19;12.20;1.00
23671;DHT22;12012;51.998;7.614;2023-04-03T09:44:38;12.80;1.00
23671;DHT22;12012;51.998;7.614;2023-04-03T09:47:27;13.10;1.00
23671;DHT22;12012;51.998;7.614;2023-04-03T09:52:37;13.70;1.00
23671;DHT22;12012;51.998;7.614;2023-04-03T09:55:21;13.90;1.00
23671;DHT22;12012;51.998;7.614;2023-04-03T09:58:02;14.00;1.00
23671;DHT22;12012;51.998;7.614;2023-04-03T10:02:59;13.60;1.00
23671;DHT22;12012;51.998;7.614;2023-04-03T10:05:32;13.50;1.00
23671;DHT22;12012;51.998;7.614;2023-04-03T10:10:33;13.60;1.00
23671;DHT22;12012;51.998;7.614;2023-04-03T10:13:09;13.70;1.00
23671;DHT22;12012;51.998;7.614;2023-04-03T10:15:45;13.90;1.00
23671;DHT22;12012;51.998;7.614;2023-04-03T10:18:42;13.90;1.00
23671;DHT22;12012;51.998;7.614;2023-04-03T10:24:14;14.00;1.00
23671;DHT22;12012;51.998;7.614;2023-04-03T10:34:33;15.60;1.00
23671;DHT22;12012;51.998;7.614;2023-04-03T10:37:15;15.70;1.00
23671;DHT22;12012;51.998;7.614;2023-04-03T10:40:05;15.70;1.00
23671;DHT22;12012;51.998;7.614;2023-04-03T10:59:32;17.00;1.00
23671;DHT22;12012;51.998;7.614;2023-04-03T11:02:12;17.10;1.00
23671;DHT22;12012;51.998;7.614;2023-04-03T11:04:43;17.00;1.00
23671;DHT22;12012;51.998;7.614;2023-04-03T11:07:18;16.90;1.00
23671;DHT22;12012;51.998;7.614;2023-04-03T11:09:48;16.80;1.00
23671;DHT22;12012;51.998;7.614;2023-04-03T11:12:21;16.90;1.00
23671;DHT22;12012;51.998;7.614;2023-04-03T11:14:50;17.00;1.00
23671;DHT22;12012;51.998;7.614;2023-04-03T11:22:33;18.30;1.00
23671;DHT22;12012;51.998;7.614;2023-04-03T11:25:04;19.50;1.00
23671;DHT22;12012;51.998;7.614;2023-04-03T11:27:46;20.30;1.00
23671;DHT22;12012;51.998;7.614;2023-04-03T11:30:31;21.30;1.00
23671;DHT22;12012;51.998;7.614;2023-04-03T11:33:09;21.90;1.00
23671;DHT22;12012;51.998;7.614;2023-04-03T11:35:44;22.40;1.00
23671;DHT22;12012;51.998;7.614;2023-04-03T11:38:19;23.10;1.00
23671;DHT22;12012;51.998;7.614;2023-04-03T11:40:48;23.50;1.00
23671;DHT22;12012;51.998;7.614;2023-04-03T11:43:22;23.60;1.00
23671;DHT22;12012;51.998;7.614;2023-04-03T11:45:55;22.70;1.00
23671;DHT22;12012;51.998;7.614;2023-04-03T11:50:54;21.80;1.00
23671;DHT22;12012;51.998;7.614;2023-04-03T11:55:58;21.80;1.00
23671;DHT22;12012;51.998;7.614;2023-04-03T11:58:31;22.90;1.00
23671;DHT22;12012;51.998;7.614;2023-04-03T12:01:09;22.40;1.00
23671;DHT22;12012;51.998;7.614;2023-04-03T12:11:25;25.10;1.00
23671;DHT22;12012;51.998;7.614;2023-04-03T12:16:29;23.50;1.00
23671;DHT22;12012;51.998;7.614;2023-04-03T12:29:27;24.40;1.00
23671;DHT22;12012;51.998;7.614;2023-04-03T12:32:21;25.40;1.00
23671;DHT22;12012;51.998;7.614;2023-04-03T12:46:40;23.20;1.00
23671;DHT22;12012;51.998;7.614;2023-04-03T12:51:51;24.50;1.00
23671;DHT22;12012;51.998;7.614;2023-04-03T12:54:27;23.70;1.00
23671;DHT22;12012;51.998;7.614;2023-04-03T12:59:40;23.20;1.00
23671;DHT22;12012;51.998;7.614;2023-04-03T13:02:31;22.90;1.00
23671;DHT22;12012;51.998;7.614;2023-04-03T13:04:58;22.60;1.00
23671;DHT22;12012;51.998;7.614;2023-04-03T13:07:31;21.50;1.00
23671;DHT22;12012;51.998;7.614;2023-04-03T13:10:02;20.30;1.00
23671;DHT22;12012;51.998;7.614;2023-04-03T13:12:29;20.10;1.00
23671;DHT22;12012;51.998;7.614;2023-04-03T13:14:58;20.60;1.00
23671;DHT22;12012;51.998;7.614;2023-04-03T13:17:24;22.00;1.00
23671;DHT22;12012;51.998;7.614;2023-04-03T13:19:51;23.20;1.00
23671;DHT22;12012;51.998;7.614;2023-04-03T13:22:36;24.10;1.00
23671;DHT22;12012;51.998;7.614;2023-04-03T13:25:10;25.00;1.00
23671;DHT22;12012;51.998;7.614;2023-04-03T13:27:36;25.60;1.00
23671;DHT22;12012;51.998;7.614;2023-04-03T13:30:06;25.20;1.00
23671;DHT22;12012;51.998;7.614;2023-04-03T13:32:32;24.80;1.00
23671;DHT22;12012;51.998;7.614;2023-04-03T13:34:59;24.80;1.00
23671;DHT22;12012;51.998;7.614;2023-04-03T13:37:32;24.70;1.00
23671;DHT22;12012;51.998;7.614;2023-04-03T13:42:33;23.70;1.00
23671;DHT22;12012;51.998;7.614;2023-04-03T13:45:24;22.70;1.00
23671;DHT22;12012;51.998;7.614;2023-04-03T13:48:05;20.90;1.00
23671;DHT22;12012;51.998;7.614;2023-04-03T13:50:31;19.20;1.00
23671;DHT22;12012;51.998;7.614;2023-04-03T13:53:09;18.10;1.00
23671;DHT22;12012;51.998;7.614;2023-04-03T13:55:37;18.30;1.00
23671;DHT22;12012;51.998;7.614;2023-04-03T13:58:27;19.30;1.00
23671;DHT22;12012;51.998;7.614;2023-04-03T14:03:51;17.50;1.00
23671;DHT22;12012;51.998;7.614;2023-04-03T14:06:17;17.50;1.00
23671;DHT22;12012;51.998;7.614;2023-04-03T14:08:44;18.80;1.00
23671;DHT22;12012;51.998;7.614;2023-04-03T14:11:20;19.90;1.00
23671;DHT22;12012;51.998;7.614;2023-04-03T14:13:47;21.00;1.00
23671;DHT22;12012;51.998;7.614;2023-04-03T14:16:15;21.60;1.00
23671;DHT22;12012;51.998;7.614;2023-04-03T14:18:43;21.90;1.00
23671;DHT22;12012;51.998;7.614;2023-04-03T14:21:11;22.00;1.00
23671;DHT22;12012;51.998;7.614;2023-04-03T14:23:37;22.30;1.00
23671;DHT22;12012;51.998;7.614;2023-04-03T14:26:04;22.90;1.00
23671;DHT22;12012;51.998;7.614;2023-04-03T14:28:31;23.50;1.00
23671;DHT22;12012;51.998;7.614;2023-04-03T14:30:58;24.10;1.00
23671;DHT22;12012;51.998;7.614;2023-04-03T14:33:23;24.20;1.00
23671;DHT22;12012;51.998;7.614;2023-04-03T14:35:51;24.40;1.00
23671;DHT22;12012;51.998;7.614;2023-04-03T14:38:29;24.60;1.00
23671;DHT22;12012;51.998;7.614;2023-04-03T14:40:55;23.50;1.00
23671;DHT22;12012;51.998;7.614;2023-04-03T14:43:22;23.40;1.00
23671;DHT22;12012;51.998;7.614;2023-04-03T14:45:49;23.50;1.00
23671;DHT22;12012;51.998;7.614;2023-04-03T14:48:24;23.70;1.00
23671;DHT22;12012;51.998;7.614;2023-04-03T14:50:50;23.50;1.00
23671;DHT22;12012;51.998;7.614;2023-04-03T14:53:17;23.30;1.00
23671;DHT22;12012;51.998;7.614;2023-04-03T14:55:46;23.20;1.00
23671;DHT22;12012;51.998;7.614;2023-04-03T14:58:17;23.10;1.00
23671;DHT22;12012;51.998;7.614;2023-04-03T15:00:44;22.90;1.00
23671;DHT22;12012;51.998;7.614;2023-04-03T15:03:15;22.60;1.00
23671;DHT22;12012;51.998;7.614;2023-04-03T15:05:42;21.90;1.00
23671;DHT22;12012;51.998;7.614;2023-04-03T15:08:20;21.10;1.00
23671;DHT22;12012;51.998;7.614;2023-04-03T15:10:47;20.50;1.00
23671;DHT22;12012;51.998;7.614;2023-04-03T15:13:13;19.70;1.00
23671;DHT22;12012;51.998;7.614;2023-04-03T15:15:39;18.70;1.00
23671;DHT22;12012;51.998;7.614;2023-04-03T15:18:05;17.50;1.00
23671;DHT22;12012;51.998;7.614;2023-04-03T15:20:31;16.50;1.00
23671;DHT22;12012;51.998;7.614;2023-04-03T15:22:59;16.00;1.00
23671;DHT22;12012;51.998;7.614;2023-04-03T15:25:26;15.90;1.00
23671;DHT22;12012;51.998;7.614;2023-04-03T15:27:56;15.80;1.00
23671;DHT22;12012;51.998;7.614;2023-04-03T15:30:22;15.80;1.00
23671;DHT22;12012;51.998;7.614;2023-04-03T15:32:49;15.80;1.00
23671;DHT22;12012;51.998;7.614;2023-04-03T15:35:15;15.80;1.00
23671;DHT22;12012;51.998;7.614;2023-04-03T15:37:41;15.80;1.00
23671;DHT22;12012;51.998;7.614;2023-04-03T15:40:07;15.60;1.00
23671;DHT22;12012;51.998;7.614;2023-04-03T15:42:33;15.50;1.00
23671;DHT22;12012;51.998;7.614;2023-04-03T15:44:58;15.40;1.00
23671;DHT22;12012;51.998;7.614;2023-04-03T15:47:25;15.30;1.00
23671;DHT22;12012;51.998;7.614;2023-04-03T15:49:52;15.30;1.00
23671;DHT22;12012;51.998;7.614;2023-04-03T15:52:18;15.20;1.00
23671;DHT22;12012;51.998;7.614;2023-04-03T15:54:44;15.10;1.00
23671;DHT22;12012;51.998;7.614;2023-04-03T15:57:09;14.90;1.00
23671;DHT22;12012;51.998;7.614;2023-04-03T15:59:35;14.80;1.00
23671;DHT22;12012;51.998;7.614;2023-04-03T16:02:01;14.50;1.00
23671;DHT22;12012;51.998;7.614;2023-04-03T16:04:29;14.40;1.00
23671;DHT22;12012;51.998;7.614;2023-04-03T16:06:55;14.10;1.00
23671;DHT22;12012;51.998;7.614;2023-04-03T16:09:20;14.00;1.00
23671;DHT22;12012;51.998;7.614;2023-04-03T16:11:46;13.90;1.00
23671;DHT22;12012;51.998;7.614;2023-04-03T16:14:11;13.70;1.00
23671;DHT22;12012;51.998;7.614;2023-04-03T16:16:38;13.60;1.00
23671;DHT22;12012;51.998;7.614;2023-04-03T16:19:04;13.40;1.00
23671;DHT22;12012;51.998;7.614;2023-04-03T16:21:31;13.10;1.00
23671;DHT22;12012;51.998;7.614;2023-04-03T16:24:00;12.80;1.00
23671;DHT22;12012;51.998;7.614;2023-04-03T16:26:26;12.50;1.00
23671;DHT22;12012;51.998;7.614;2023-04-03T16:28:53;12.30;1.00
23671;DHT22;12012;51.998;7.614;2023-04-03T16:31:19;12.30;1.00
23671;DHT22;12012;51.998;7.614;2023-04-03T16:33:45;12.20;1.00
23671;DHT22;12012;51.998;7.614;2023-04-03T16:36:10;12.10;1.00
23671;DHT22;12012;51.998;7.614;2023-04-03T16:38:36;12.00;1.00
23671;DHT22;12012;51.998;7.614;2023-04-03T16:41:02;11.80;1.00
23671;DHT22;12012;51.998;7.614;2023-04-03T16:43:30;11.60;1.00
23671;DHT22;12012;51.998;7.614;2023-04-03T16:45:56;11.30;1.00
23671;DHT22;12012;51.998;7.614;2023-04-03T16:48:22;11.10;1.00
23671;DHT22;12012;51.998;7.614;2023-04-03T16:50:49;10.90;1.00
23671;DHT22;12012;51.998;7.614;2023-04-03T16:53:16;10.70;1.00
23671;DHT22;12012;51.998;7.614;2023-04-03T16:55:41;10.50;1.00
23671;DHT22;12012;51.998;7.614;2023-04-03T16:58:07;10.40;1.00
23671;DHT22;12012;51.998;7.614;2023-04-03T17:00:33;10.20;1.00
23671;DHT22;12012;51.998;7.614;2023-04-03T17:02:59;10.00;1.00
23671;DHT22;12012;51.998;7.614;2023-04-03T17:05:25;9.90;1.00
23671;DHT22;12012;51.998;7.614;2023-04-03T17:07:50;9.80;1.00
23671;DHT22;12012;51.998;7.614;2023-04-03T17:10:16;9.80;1.00
23671;DHT22;12012;51.998;7.614;2023-04-03T17:12:42;9.60;1.00
23671;DHT22;12012;51.998;7.614;2023-04-03T17:15:08;9.60;1.00
23671;DHT22;12012;51.998;7.614;2023-04-03T17:17:34;9.50;1.00
23671;DHT22;12012;51.998;7.614;2023-04-03T17:20:00;9.40;1.00
23671;DHT22;12012;51.998;7.614;2023-04-03T17:22:27;9.30;1.00
23671;DHT22;12012;51.998;7.614;2023-04-03T17:24:53;9.20;1.00
23671;DHT22;12012;51.998;7.614;2023-04-03T17:27:18;9.10;1.00
23671;DHT22;12012;51.998;7.614;2023-04-03T17:29:44;9.00;1.00
23671;DHT22;12012;51.998;7.614;2023-04-03T17:32:10;8.90;1.00
23671;DHT22;12012;51.998;7.614;2023-04-03T17:34:35;8.80;1.00
23671;DHT22;12012;51.998;7.614;2023-04-03T17:37:01;8.70;1.00
23671;DHT22;12012;51.998;7.614;2023-04-03T17:39:27;8.60;1.00
23671;DHT22;12012;51.998;7.614;2023-04-03T17:41:52;8.50;1.00
23671;DHT22;12012;51.998;7.614;2023-04-03T17:44:19;8.40;1.00
23671;DHT22;12012;51.998;7.614;2023-04-03T17:46:45;8.50;1.00